Terminal Aerodrome Forecast
Issued by NWS

Home | Current Version | Previous Version | Text Only | Print | Product List | Glossary On
Versions: 1 2 3 4 5 6 7 8 9 10 11 12 13 14 15 16 17 18 19 20 21 22 23 24 25 26 27 28
000
FTUS41 KBUF 280500
TAFIAG
TAF
KIAG 280522Z 2806/2906 33009KT 2SM -SN OVC030
      TEMPO 2806/2809 3/4SM -SN OVC015
     FM281000 36010KT 4SM -SHSN OVC030
     FM281400 35012KT P6SM VCSH BKN040
     FM281800 33013KT P6SM SCT050
     FM290000 30006KT P6SM SKC=

USA.gov is the U.S. government's official web portal to all federal, state and local government web resources and services.